createdAt,value
2022-12-23T00:01:03.215Z,50.80
2022-12-23T00:06:17.157Z,30.40
2022-12-23T00:11:21.292Z,38.50
2022-12-23T00:16:24.995Z,40.20
2022-12-23T00:21:28.839Z,37.10
2022-12-23T00:26:32.557Z,35.40
2022-12-23T00:31:37.055Z,30.30
2022-12-23T00:36:41.879Z,26.10
2022-12-23T00:42:05.182Z,31.50
2022-12-23T00:47:29.019Z,33.30
2022-12-23T00:52:33.355Z,25.20
2022-12-23T00:57:37.093Z,27.30
2022-12-23T01:02:59.360Z,33.70
2022-12-23T01:08:12.522Z,41.90
2022-12-23T01:13:16.829Z,46.80
2022-12-23T01:18:20.415Z,29.80
2022-12-23T01:23:24.238Z,30.10
2022-12-23T01:28:30.280Z,24.30
2022-12-23T01:33:34.596Z,33.40
2022-12-23T01:38:38.511Z,34.00
2022-12-23T01:43:46.845Z,24.00
2022-12-23T01:48:53.932Z,36.80
2022-12-23T01:54:02.264Z,30.70
2022-12-23T01:59:37.187Z,31.20
2022-12-23T02:04:41.368Z,36.80
2022-12-23T02:09:45.507Z,31.60
2022-12-23T02:15:29.256Z,26.60
2022-12-23T02:21:03.818Z,26.50
2022-12-23T02:26:38.329Z,23.70
2022-12-23T02:31:58.688Z,21.60
2022-12-23T02:37:17.551Z,24.60
2022-12-23T02:42:36.517Z,22.70
2022-12-23T02:47:52.119Z,14.40
2022-12-23T02:53:01.074Z,26.80
2022-12-23T02:58:13.844Z,24.80
2022-12-23T03:03:17.943Z,20.00
2022-12-23T03:08:32.418Z,15.90
2022-12-23T03:14:05.413Z,20.60
2022-12-23T03:19:24.386Z,20.00
2022-12-23T03:24:49.413Z,18.60
2022-12-23T03:30:20.063Z,23.40
2022-12-23T03:35:36.979Z,18.60
2022-12-23T03:46:57.376Z,29.80
2022-12-23T03:52:21.213Z,22.40
2022-12-23T03:57:40.063Z,29.70
2022-12-23T04:03:00.745Z,30.20
2022-12-23T04:08:21.774Z,30.40
2022-12-23T04:13:28.859Z,26.40
2022-12-23T04:18:33.361Z,33.20
2022-12-23T04:23:37.081Z,26.80
2022-12-23T04:28:40.875Z,28.40
2022-12-23T04:33:44.649Z,27.40
2022-12-23T04:38:48.630Z,37.00
2022-12-23T04:43:53.448Z,36.50
2022-12-23T04:48:57.714Z,31.50
2022-12-23T04:54:01.830Z,23.50
2022-12-23T04:59:05.495Z,17.40
2022-12-23T05:04:13.551Z,36.70
2022-12-23T05:09:17.622Z,37.40
2022-12-23T05:14:21.441Z,22.30
2022-12-23T05:19:26.808Z,38.60
2022-12-23T05:24:30.611Z,27.10
2022-12-23T05:29:34.437Z,32.80
2022-12-23T05:34:38.389Z,40.30
2022-12-23T05:39:42.328Z,41.10
2022-12-23T05:44:46.827Z,37.90
2022-12-23T05:49:51.394Z,30.30
2022-12-23T05:54:56.746Z,35.00
2022-12-23T06:00:00.584Z,32.70
2022-12-23T06:05:05.364Z,35.10
2022-12-23T06:10:11.954Z,29.50
2022-12-23T06:15:16.782Z,31.30
2022-12-23T06:20:21.223Z,22.30
2022-12-23T06:25:25.555Z,23.50
2022-12-23T06:30:29.675Z,18.20
2022-12-23T06:35:33.620Z,49.50
2022-12-23T06:40:37.520Z,30.40
2022-12-23T06:45:46.333Z,43.10
2022-12-23T06:50:50.198Z,27.50
2022-12-23T06:56:02.684Z,33.50
2022-12-23T07:01:07.032Z,21.60
2022-12-23T07:06:11.097Z,30.80
2022-12-23T07:11:14.936Z,29.60
2022-12-23T07:16:18.891Z,29.00
2022-12-23T07:21:28.853Z,34.10
2022-12-23T07:26:33.861Z,38.60
2022-12-23T07:31:40.937Z,44.70
2022-12-23T07:36:45.296Z,24.10
2022-12-23T07:41:55.509Z,41.00
2022-12-23T07:47:07.793Z,40.70
2022-12-23T07:52:11.822Z,44.40
2022-12-23T07:57:16.256Z,39.10
2022-12-23T08:02:25.722Z,26.40
2022-12-23T08:07:29.981Z,35.90
2022-12-23T08:12:34.809Z,39.30
2022-12-23T08:17:38.941Z,45.00
2022-12-23T08:22:43.187Z,38.00
2022-12-23T08:27:47.389Z,27.60
2022-12-23T08:32:51.952Z,20.90
2022-12-23T08:37:55.980Z,27.40
2022-12-23T08:43:00.005Z,40.30
2022-12-23T08:48:05.276Z,33.10
2022-12-23T08:53:09.758Z,29.60
2022-12-23T08:58:15.502Z,41.70
2022-12-23T09:03:19.507Z,54.00
2022-12-23T09:08:24.649Z,53.10
2022-12-23T09:13:35.259Z,31.40
2022-12-23T09:18:40.109Z,22.70
2022-12-23T09:23:44.551Z,26.20
2022-12-23T09:28:49.301Z,32.40
2022-12-23T09:33:54.664Z,28.00
2022-12-23T09:38:59.459Z,37.00
2022-12-23T09:44:15.413Z,44.20
2022-12-23T09:49:24.252Z,30.70
2022-12-23T09:54:41.779Z,23.60
2022-12-23T10:00:20.611Z,31.20
2022-12-23T10:06:03.248Z,31.80
2022-12-23T10:11:22.453Z,17.70
2022-12-23T10:21:54.583Z,43.70
2022-12-23T10:27:07.019Z,38.00
2022-12-23T10:33:03.055Z,37.00
2022-12-23T10:38:30.342Z,36.20
2022-12-23T10:43:53.821Z,40.10
2022-12-23T10:49:52.324Z,48.60
2022-12-23T10:54:56.380Z,28.10
2022-12-23T11:00:00.388Z,43.00
2022-12-23T11:05:09.448Z,50.60
2022-12-23T11:10:29.136Z,52.60
2022-12-23T11:15:40.067Z,31.50
2022-12-23T11:21:01.770Z,48.80
2022-12-23T11:26:18.196Z,40.30
2022-12-23T11:31:36.634Z,42.90
2022-12-23T11:36:42.329Z,40.00
2022-12-23T11:41:51.054Z,28.80
2022-12-23T11:46:56.105Z,71.20
2022-12-23T11:52:12.859Z,33.50
2022-12-23T11:57:26.380Z,35.50
2022-12-23T12:02:45.298Z,33.20
2022-12-23T12:07:51.908Z,42.00
2022-12-23T12:13:09.503Z,39.60
2022-12-23T12:18:19.650Z,43.10
2022-12-23T12:23:35.892Z,66.40
2022-12-23T12:28:44.714Z,49.60
2022-12-23T12:39:00.968Z,53.90
2022-12-23T12:44:17.029Z,115.80
2022-12-23T12:49:33.711Z,229.90
2022-12-23T12:54:52.825Z,91.90
2022-12-23T13:00:05.631Z,94.20
2022-12-23T13:05:38.878Z,60.90
2022-12-23T13:10:57.860Z,56.00
2022-12-23T13:16:42.189Z,78.50
2022-12-23T13:22:28.788Z,42.50
2022-12-23T13:27:44.879Z,38.90
2022-12-23T13:33:20.517Z,35.70
2022-12-23T13:39:00.835Z,48.10
2022-12-23T13:44:09.950Z,78.30
2022-12-23T13:49:24.245Z,76.10
2022-12-23T13:54:56.133Z,53.00
2022-12-23T14:00:34.309Z,58.30
2022-12-23T14:05:53.593Z,30.70
2022-12-23T14:16:33.160Z,54.10
2022-12-23T14:22:15.744Z,63.50
2022-12-23T14:28:09.272Z,124.90
2022-12-23T14:33:19.245Z,75.70
2022-12-23T14:38:31.916Z,87.20
2022-12-23T14:43:56.725Z,82.20
2022-12-23T14:49:36.921Z,77.20
2022-12-23T14:54:46.482Z,61.60
2022-12-23T15:00:06.789Z,55.60
2022-12-23T15:05:11.522Z,61.10
2022-12-23T15:10:23.709Z,70.50
2022-12-23T15:15:35.218Z,83.70
2022-12-23T15:20:41.634Z,68.20
2022-12-23T15:25:51.589Z,76.60
2022-12-23T15:30:57.527Z,73.30
2022-12-23T15:36:06.039Z,121.30
2022-12-23T15:41:19.118Z,109.10
2022-12-23T15:46:30.173Z,100.50
2022-12-23T15:52:12.462Z,205.00
2022-12-23T15:57:22.304Z,133.90
2022-12-23T16:03:00.341Z,133.10
2022-12-23T16:08:28.506Z,121.40
2022-12-23T16:13:34.323Z,131.80
2022-12-23T16:18:47.273Z,279.00
2022-12-23T16:23:53.353Z,150.60
2022-12-23T16:29:01.556Z,81.20
2022-12-23T16:39:22.720Z,174.70
2022-12-23T16:44:26.734Z,348.00
2022-12-23T16:49:34.087Z,313.80
2022-12-23T16:54:38.379Z,272.40
2022-12-23T16:59:41.991Z,214.30
2022-12-23T17:04:45.610Z,236.70
2022-12-23T17:09:49.384Z,266.00
2022-12-23T17:14:53.266Z,194.60
2022-12-23T17:19:58.112Z,108.00
2022-12-23T17:25:02.141Z,151.50
2022-12-23T17:30:11.062Z,151.60
2022-12-23T17:40:20.319Z,61.70
2022-12-23T17:45:28.203Z,87.60
2022-12-23T17:50:35.435Z,127.70
2022-12-23T17:55:40.775Z,89.00
2022-12-23T18:00:48.519Z,86.90
2022-12-23T18:06:01.585Z,62.70
2022-12-23T18:11:17.512Z,86.00
2022-12-23T18:16:24.222Z,202.50
2022-12-23T18:21:31.296Z,94.20
2022-12-23T18:26:36.643Z,122.50
2022-12-23T18:31:51.396Z,73.40
2022-12-23T18:36:56.602Z,68.50
2022-12-23T18:42:00.997Z,71.30
2022-12-23T18:47:05.872Z,98.70
2022-12-23T18:52:15.567Z,76.70
2022-12-23T18:57:20.650Z,105.00
2022-12-23T19:02:26.908Z,71.60
2022-12-23T19:07:33.700Z,89.00
2022-12-23T19:12:39.454Z,171.00
2022-12-23T19:17:44.328Z,106.70
2022-12-23T19:22:49.840Z,82.00
2022-12-23T19:27:53.613Z,82.10
2022-12-23T19:32:57.773Z,74.10
2022-12-23T19:38:02.196Z,60.00
2022-12-23T19:43:06.606Z,60.00
2022-12-23T19:48:13.528Z,75.70
2022-12-23T19:53:18.279Z,100.00
2022-12-23T19:58:36.561Z,129.50
2022-12-23T20:03:47.929Z,42.10
2022-12-23T20:08:59.757Z,71.90
2022-12-23T20:14:06.775Z,72.60
2022-12-23T20:19:11.788Z,85.60
2022-12-23T20:24:17.167Z,70.00
2022-12-23T20:29:21.304Z,62.60
2022-12-23T20:34:25.440Z,87.30
2022-12-23T20:39:29.723Z,218.30
2022-12-23T20:44:36.202Z,219.90
2022-12-23T20:49:41.416Z,273.20
2022-12-23T20:54:45.476Z,253.00
2022-12-23T20:59:50.402Z,433.60
2022-12-23T21:04:54.593Z,160.50
2022-12-23T21:09:59.311Z,105.60
2022-12-23T21:15:03.936Z,58.20
2022-12-23T21:20:09.668Z,90.00
2022-12-23T21:25:13.932Z,84.10
2022-12-23T21:30:18.804Z,70.40
2022-12-23T21:35:23.122Z,60.10
2022-12-23T21:40:27.743Z,33.00
2022-12-23T21:45:31.796Z,25.20
2022-12-23T21:50:36.117Z,23.40
2022-12-23T21:55:40.654Z,52.10
2022-12-23T22:00:47.159Z,44.20
2022-12-23T22:05:50.885Z,29.40
2022-12-23T22:10:54.800Z,28.90
2022-12-23T22:15:59.895Z,24.60
2022-12-23T22:21:15.182Z,35.00
2022-12-23T22:26:25.656Z,185.60
2022-12-23T22:31:40.707Z,99.80
2022-12-23T22:36:45.756Z,68.10
2022-12-23T22:41:51.927Z,67.60
2022-12-23T22:46:56.182Z,50.80
2022-12-23T22:52:00.879Z,65.20
2022-12-23T22:57:06.032Z,49.70
2022-12-23T23:02:09.630Z,55.30
2022-12-23T23:07:13.529Z,65.50
2022-12-23T23:12:17.372Z,58.10
2022-12-23T23:17:27.834Z,58.50
2022-12-23T23:22:31.568Z,56.40
2022-12-23T23:27:35.593Z,67.20
2022-12-23T23:32:39.136Z,66.00
2022-12-23T23:37:43.094Z,43.70
2022-12-23T23:42:46.982Z,48.50
2022-12-23T23:47:51.369Z,48.90
2022-12-23T23:52:55.135Z,53.60
2022-12-23T23:57:59.367Z,49.70
